Japan Airlines Virtual Airport Information Service

Seoul Incheon International Airport

ICAO: RKSI Country: South Korea
Latitude: 37.4691 Longitude: 126.451
Latest Arrival : KAL1208 (RKPC-RKSI) Latest Departure : KAL1125 (RKSI-RKPK)


WX CaptureLIVE
Data provided by noaa.gov | Fetched at 08:58:42

METAR : RKSI 090830Z 33007KT 6000 NSC 27/19 Q1002 NOSIG

TAF : RKSI 090500Z 0906/1012 30010KT 6000 SCT030 TN22/0921Z TX28/1006Z BECMG 0914/0915 10006KT BECMG 1000/1001 03012KT 4000 -RA FEW010 BKN025 OVC080 BECMG 1006/1007 6000 NSW SCT030 BKN120


Runway Data for RKSI
Data provided by openaviationdata.com

Runway ID Mag Var Hdg Length Elevation Surface ILS Freq ILS Id ILS Slope
15L -8 152° 12308 ft 23 ft Asphalt 111.9 ISLL 3
15R -8 152° 12308 ft 23 ft Asphalt 109.1 ISRR 3
33L -8 332° 12308 ft 23 ft Asphalt 109.3 INLL 3
33R -8 332° 12308 ft 23 ft Asphalt 108.9 INRR 3

Seoul Incheon International Airport, South Korea
Use only for reference purposes



Not for navigational purposes.